Time;durP1;ratioP1;P1;durP2;ratioP2;P2;SDS_P1;SDS_P2;PMS_P1;PMS_P2;Temp;Humidity;BMP_temperature;BMP_pressure;BME280_temperature;BME280_humidity;BME280_pressure;Samples;Min_cycle;Max_cycle;Signal;HPM_P1;HPM_P2
2023/03/29 00:00:50;;;;;;;;;;;;;;;25.43;40.85;97232.86;592538;239;66733;-64
2023/03/29 00:03:18;;;;;;;;;;;;;;;25.41;38.87;97230.45;592507;239;66651;-64
2023/03/29 00:05:45;;;;;;;;;;;;;;;25.41;40.83;97240.42;592587;239;63824;-64
2023/03/29 00:08:13;;;;;;;;;;;;;;;25.40;38.87;97233.43;592561;239;66718;-64
2023/03/29 00:10:41;;;;;;;;;;;;;;;25.39;39.80;97232.63;592433;239;69892;-64
2023/03/29 00:13:08;;;;;;;;;;;;;;;25.39;40.25;97234.53;592526;239;65121;-64
2023/03/29 00:15:36;;;;;;;;;;;;;;;25.37;39.52;97237.53;592586;239;68953;-64
2023/03/29 00:18:03;;;;;;;;;;;;;;;25.37;39.99;97225.95;592466;239;68521;-64
2023/03/29 00:20:31;;;;;;;;;;;;;;;25.36;38.80;97225.16;592472;239;65064;-64
2023/03/29 00:22:58;;;;;;;;;;;;;;;25.35;38.52;97223.57;592506;239;68839;-65
2023/03/29 00:25:26;;;;;;;;;;;;;;;25.36;40.12;97227.84;592470;239;69249;-64
2023/03/29 00:27:53;;;;;;;;;;;;;;;25.35;40.42;97228.95;592546;239;65051;-64
2023/03/29 00:30:21;;;;;;;;;;;;;;;25.33;39.48;97223.06;592550;239;69685;-64
2023/03/29 00:32:48;;;;;;;;;;;;;;;25.33;39.28;97225.75;592519;239;68736;-64
2023/03/29 00:35:16;;;;;;;;;;;;;;;25.32;40.06;97226.85;592389;239;65211;-64
2023/03/29 00:37:45;;;;;;;;;;;;;;;25.32;39.78;97221.47;592477;239;68792;-64
2023/03/29 00:40:14;;;;;;;;;;;;;;;25.30;38.13;97237.09;592536;239;69634;-64
2023/03/29 00:42:43;;;;;;;;;;;;;;;25.30;38.29;97223.65;592598;239;65115;-64
2023/03/29 00:45:18;;;;;;;;;;;;;;;25.29;41.35;97232.83;592466;239;66321;-64
2023/03/29 00:47:55;;;;;;;;;;;;;;;25.28;40.59;97239.27;592559;239;69106;-64
2023/03/29 00:50:30;;;;;;;;;;;;;;;25.29;40.89;97240.89;592436;239;67763;-65
2023/03/29 00:53:09;;;;;;;;;;;;;;;25.28;39.02;97241.17;592452;239;65610;-64
2023/03/29 00:55:39;;;;;;;;;;;;;;;25.27;39.51;97234.20;592497;239;68683;-64
2023/03/29 00:58:08;;;;;;;;;;;;;;;25.25;40.87;97237.17;590637;239;63069;-64
2023/03/29 01:00:37;;;;;;;;;;;;;;;25.15;39.36;97229.26;592661;239;68528;-64
2023/03/29 01:03:07;;;;;;;;;;;;;;;25.24;37.77;97241.77;592390;239;68638;-64
2023/03/29 01:05:36;;;;;;;;;;;;;;;25.24;38.58;97232.90;592528;239;63081;-64
2023/03/29 01:08:06;;;;;;;;;;;;;;;25.22;39.71;97259.28;592456;239;69682;-64
2023/03/29 01:10:41;;;;;;;;;;;;;;;25.22;39.69;97245.83;592566;239;66202;-64
2023/03/29 01:13:12;;;;;;;;;;;;;;;25.22;39.39;97245.83;592438;239;65813;-64
2023/03/29 01:15:41;;;;;;;;;;;;;;;25.21;39.68;97236.97;592490;239;68781;-65
2023/03/29 01:18:09;;;;;;;;;;;;;;;25.19;41.61;97236.46;592383;239;68896;-63
2023/03/29 01:20:51;;;;;;;;;;;;;;;25.19;38.94;97249.11;592553;239;62701;-63
2023/03/29 01:23:26;;;;;;;;;;;;;;;25.19;38.85;97249.11;592520;239;69253;-64
2023/03/29 01:25:56;;;;;;;;;;;;;;;25.18;39.56;97244.80;592278;239;69190;-63
2023/03/29 01:28:25;;;;;;;;;;;;;;;25.17;39.57;97243.22;592548;239;64984;-64
2023/03/29 01:31:07;;;;;;;;;;;;;;;25.17;40.10;97243.22;581709;239;69555;-64
2023/03/29 01:33:36;;;;;;;;;;;;;;;25.16;40.68;97239.73;592442;239;68487;-64
2023/03/29 01:36:08;;;;;;;;;;;;;;;25.15;39.93;97243.50;592213;239;64821;-64
2023/03/29 01:38:50;;;;;;;;;;;;;;;25.15;40.84;97242.70;592409;239;67491;-64
2023/03/29 01:41:17;;;;;;;;;;;;;;;25.13;39.14;97245.67;592438;239;66766;-63
2023/03/29 01:43:46;;;;;;;;;;;;;;;25.12;40.88;97237.88;592506;239;62779;-63
2023/03/29 01:46:27;;;;;;;;;;;;;;;25.12;41.52;97233.30;592510;239;68694;-63
2023/03/29 01:48:56;;;;;;;;;;;;;;;25.12;40.09;97229.81;592507;239;70632;-63
2023/03/29 01:51:28;;;;;;;;;;;;;;;25.11;38.69;97234.41;592411;239;65151;-63
2023/03/29 01:54:02;;;;;;;;;;;;;;;25.11;40.92;97225.55;592476;239;67417;-64
2023/03/29 01:56:31;;;;;;;;;;;;;;;25.10;39.35;97221.23;592481;239;69715;-63
2023/03/29 01:59:00;;;;;;;;;;;;;;;25.10;42.14;97231.99;592462;239;65809;-63
2023/03/29 02:01:30;;;;;;;;;;;;;;;25.08;40.18;97240.37;592387;239;69009;-63
2023/03/29 02:04:01;;;;;;;;;;;;;;;25.08;39.44;97234.98;592459;239;68395;-63
2023/03/29 02:06:32;;;;;;;;;;;;;;;25.07;37.85;97228.00;592454;239;43934;-63
2023/03/29 02:09:01;;;;;;;;;;;;;;;25.07;41.09;97235.27;592556;239;69839;-63
2023/03/29 02:11:29;;;;;;;;;;;;;;;25.06;40.04;97230.99;592401;239;66720;-63
2023/03/29 02:13:57;;;;;;;;;;;;;;;25.05;40.77;97232.89;592566;239;62962;-63
2023/03/29 02:16:24;;;;;;;;;;;;;;;25.05;39.76;97253.61;592528;237;67463;-63
2023/03/29 02:18:55;;;;;;;;;;;;;;;25.03;41.79;97243.92;592391;238;68651;-63
2023/03/29 02:21:26;;;;;;;;;;;;;;;25.03;38.97;97235.86;592557;239;65188;-63
2023/03/29 02:23:55;;;;;;;;;;;;;;;25.02;37.63;97250.41;592503;239;67841;-63
2023/03/29 02:26:23;;;;;;;;;;;;;;;25.04;42.93;97250.09;592484;239;68431;-63
2023/03/29 02:28:51;;;;;;;;;;;;;;;25.01;40.06;97246.09;592553;239;62803;-63
2023/03/29 02:31:36;;;;;;;;;;;;;;;25.02;41.78;97252.30;592405;239;68305;-63
2023/03/29 02:34:07;;;;;;;;;;;;;;;25.00;39.53;97266.02;592521;239;66493;-65
2023/03/29 02:36:45;;;;;;;;;;;;;;;25.00;38.32;97265.23;592376;239;64876;-64
2023/03/29 02:39:14;;;;;;;;;;;;;;;24.99;42.62;97263.61;592168;239;66257;-64
2023/03/29 02:41:43;;;;;;;;;;;;;;;24.99;41.66;97272.50;592550;239;68269;-63
2023/03/29 02:44:13;;;;;;;;;;;;;;;24.97;40.40;97277.36;592612;239;65027;-64
2023/03/29 02:46:42;;;;;;;;;;;;;;;24.96;39.37;97285.70;592544;239;68624;-64
2023/03/29 02:49:11;;;;;;;;;;;;;;;24.95;39.31;97284.91;592552;239;66466;-64
2023/03/29 02:51:38;;;;;;;;;;;;;;;24.95;39.62;97276.84;593039;239;62748;-64
2023/03/29 02:54:14;;;;;;;;;;;;;;;24.95;38.96;97281.42;593735;239;68820;-64
2023/03/29 02:56:43;;;;;;;;;;;;;;;24.94;40.72;97286.01;593727;239;69385;-63
2023/03/29 02:59:11;;;;;;;;;;;;;;;24.92;39.54;97280.11;593760;239;65051;-63
2023/03/29 03:01:41;;;;;;;;;;;;;;;24.92;41.04;97282.80;593746;239;66684;-63
2023/03/29 03:04:09;;;;;;;;;;;;;;;24.91;40.77;97283.91;593755;239;69401;-63
2023/03/29 03:06:38;;;;;;;;;;;;;;;24.90;40.08;97290.35;593715;239;65108;-63
2023/03/29 03:09:06;;;;;;;;;;;;;;;24.90;39.61;97298.41;593730;239;66711;-63
2023/03/29 03:11:35;;;;;;;;;;;;;;;24.90;40.59;97298.41;593739;239;68653;-64
2023/03/29 03:14:04;;;;;;;;;;;;;;;24.89;39.84;97296.03;593744;239;62864;-64
2023/03/29 03:16:31;;;;;;;;;;;;;;;24.89;38.89;97306.79;593754;239;68473;-64
2023/03/29 03:18:59;;;;;;;;;;;;;;;24.86;40.59;97302.78;593768;239;67303;-64
2023/03/29 03:21:27;;;;;;;;;;;;;;;24.87;40.95;97315.12;593741;239;65167;-64
2023/03/29 03:23:55;;;;;;;;;;;;;;;24.86;40.77;97318.91;593736;239;69973;-64
2023/03/29 03:26:28;;;;;;;;;;;;;;;24.85;40.63;97322.67;593708;239;67903;-64
2023/03/29 03:28:57;;;;;;;;;;;;;;;24.85;41.06;97338.01;593735;239;63477;-63
2023/03/29 03:31:43;;;;;;;;;;;;;;;24.84;41.99;97329.15;593863;239;42231;-64
2023/03/29 03:34:12;;;;;;;;;;;;;;;24.83;41.79;97338.31;593632;239;45965;-64
2023/03/29 03:36:41;;;;;;;;;;;;;;;24.81;39.24;97343.97;593439;239;42434;-64
2023/03/29 03:39:11;;;;;;;;;;;;;;;24.83;40.09;97346.38;593778;238;47703;-64
2023/03/29 03:41:39;;;;;;;;;;;;;;;24.80;39.37;97347.75;593705;239;68614;-63
2023/03/29 03:44:07;;;;;;;;;;;;;;;24.80;42.17;97350.44;593690;239;62543;-63
2023/03/29 03:46:34;;;;;;;;;;;;;;;24.79;40.88;97351.51;593685;239;69943;-63
2023/03/29 03:49:04;;;;;;;;;;;;;;;24.78;40.16;97352.61;593744;239;48578;-63
2023/03/29 03:51:33;;;;;;;;;;;;;;;24.79;40.04;97353.40;593218;239;44312;-65
2023/03/29 03:54:01;;;;;;;;;;;;;;;24.78;40.39;97351.81;592467;239;69380;-63
2023/03/29 03:56:36;;;;;;;;;;;;;;;24.78;41.25;97365.25;592472;239;50859;-63
2023/03/29 03:59:11;;;;;;;;;;;;;;;24.76;40.67;97370.90;592503;239;42514;-63
2023/03/29 04:01:47;;;;;;;;;;;;;;;24.76;41.34;97362.05;592378;239;45533;-63
2023/03/29 04:04:18;;;;;;;;;;;;;;;24.74;38.46;97370.38;592546;239;45794;-64
2023/03/29 04:06:47;;;;;;;;;;;;;;;24.74;41.04;97374.96;592227;239;44006;-64
2023/03/29 04:09:30;;;;;;;;;;;;;;;24.74;40.26;97369.58;584153;239;48488;-64
2023/03/29 04:12:15;;;;;;;;;;;;;;;24.73;41.37;97378.75;592493;239;43534;-64
2023/03/29 04:14:43;;;;;;;;;;;;;;;24.72;42.22;97366.41;592531;239;64881;-65
2023/03/29 04:17:12;;;;;;;;;;;;;;;24.71;38.97;97362.09;592400;239;47964;-64
2023/03/29 04:19:42;;;;;;;;;;;;;;;24.71;40.52;97378.22;592352;239;45806;-64
2023/03/29 04:22:11;;;;;;;;;;;;;;;24.70;39.97;97357.82;591977;239;48238;-63
2023/03/29 04:24:39;;;;;;;;;;;;;;;24.69;40.15;97366.95;592439;239;68984;-63
2023/03/29 04:27:08;;;;;;;;;;;;;;;24.69;39.67;97377.70;591019;239;48766;-65
2023/03/29 04:29:36;;;;;;;;;;;;;;;24.67;38.66;97369.14;592505;239;64638;-64
2023/03/29 04:32:05;;;;;;;;;;;;;;;24.67;40.92;97364.56;592212;239;45811;-64
2023/03/29 04:34:34;;;;;;;;;;;;;;;24.67;40.98;97364.56;592113;239;50844;-64
2023/03/29 04:37:09;;;;;;;;;;;;;;;24.68;38.32;97370.73;592533;239;62774;-64
2023/03/29 04:39:33;;;;;;;;;;;;;;;24.68;39.17;97365.36;592206;239;69202;-64
2023/03/29 04:42:04;;;;;;;;;;;;;;;24.67;39.45;97364.56;592562;239;47165;-64
2023/03/29 04:44:32;;;;;;;;;;;;;;;24.67;40.43;97364.56;592443;239;65817;-64
2023/03/29 04:47:01;;;;;;;;;;;;;;;24.67;39.68;97374.52;592447;239;66610;-64
2023/03/29 04:49:33;;;;;;;;;;;;;;;24.68;40.58;97378.80;591223;239;49785;-64
2023/03/29 04:52:02;;;;;;;;;;;;;;;24.68;39.79;97379.59;592463;239;65320;-64
2023/03/29 04:54:30;;;;;;;;;;;;;;;24.68;38.35;97384.17;592543;239;66190;-64
2023/03/29 04:57:03;;;;;;;;;;;;;;;24.69;41.30;97393.83;591837;239;49819;-64
2023/03/29 04:59:33;;;;;;;;;;;;;;;24.69;40.75;97366.95;584960;239;44937;-64
2023/03/29 05:02:03;;;;;;;;;;;;;;;24.69;41.89;97383.91;592537;239;69546;-63
2023/03/29 05:04:31;;;;;;;;;;;;;;;24.69;39.45;97375.02;592612;239;68734;-63
2023/03/29 05:07:01;;;;;;;;;;;;;;;24.69;39.66;97373.15;592181;239;46867;-63
2023/03/29 05:09:29;;;;;;;;;;;;;;;24.70;39.92;97390.86;592300;239;68760;-63
2023/03/29 05:11:58;;;;;;;;;;;;;;;24.71;39.19;97394.34;592452;239;47229;-63
2023/03/29 05:14:26;;;;;;;;;;;;;;;24.71;41.00;97397.83;592291;239;65811;-63
2023/03/29 05:16:54;;;;;;;;;;;;;;;24.71;39.94;97394.34;591462;239;67226;-63
2023/03/29 05:19:21;;;;;;;;;;;;;;;24.72;40.24;97398.66;592423;239;66488;-63
2023/03/29 05:21:49;;;;;;;;;;;;;;;24.72;40.43;97399.45;592437;239;65807;-63
2023/03/29 05:24:20;;;;;;;;;;;;;;;24.73;41.61;97395.66;591678;239;46053;-63
2023/03/29 05:26:55;;;;;;;;;;;;;;;24.74;41.90;97407.21;592375;239;47604;-64
2023/03/29 05:29:23;;;;;;;;;;;;;;;24.74;42.63;97391.88;592410;239;62780;-64
2023/03/29 05:31:52;;;;;;;;;;;;;;;24.74;42.73;97394.56;592291;239;46167;-64
2023/03/29 05:34:20;;;;;;;;;;;;;;;24.75;42.93;97411.52;592408;239;68736;-64
2023/03/29 05:36:50;;;;;;;;;;;;;;;24.75;40.73;97396.19;592506;239;42530;-63
2023/03/29 05:39:18;;;;;;;;;;;;;;;24.76;40.53;97394.30;591750;239;69034;-64
2023/03/29 05:41:47;;;;;;;;;;;;;;;24.76;41.62;97405.05;592314;239;68521;-64
2023/03/29 05:44:22;;;;;;;;;;;;;;;24.75;40.61;97400.77;587915;239;45087;-64
2023/03/29 05:46:52;;;;;;;;;;;;;;;24.77;41.59;97401.26;592548;239;46709;-64
2023/03/29 05:49:20;;;;;;;;;;;;;;;24.77;42.50;97406.64;592422;239;69497;-64
2023/03/29 05:51:50;;;;;;;;;;;;;;;24.77;40.76;97401.26;590103;239;46170;-64
2023/03/29 05:54:18;;;;;;;;;;;;;;;24.76;39.07;97411.22;588334;239;66425;-64
2023/03/29 05:56:46;;;;;;;;;;;;;;;24.76;39.82;97399.67;591755;238;67633;-63
2023/03/29 05:59:16;;;;;;;;;;;;;;;24.76;39.85;97405.05;592027;239;65698;-63
2023/03/29 06:01:49;;;;;;;;;;;;;;;24.75;39.99;97401.56;592012;239;69296;-63
2023/03/29 06:04:16;;;;;;;;;;;;;;;24.75;40.33;97409.63;591999;239;68780;-63
2023/03/29 06:06:47;;;;;;;;;;;;;;;24.75;38.83;97424.95;594548;236;45223;-63
2023/03/29 06:09:15;;;;;;;;;;;;;;;24.74;39.51;97405.31;598971;236;66760;-62
2023/03/29 06:11:47;;;;;;;;;;;;;;;24.75;41.85;97406.14;598891;236;46155;-61
2023/03/29 06:14:17;;;;;;;;;;;;;;;24.74;40.27;97408.01;599104;237;46198;-65
2023/03/29 06:16:47;;;;;;;;;;;;;;;24.75;40.53;97398.08;598981;236;45724;-63
2023/03/29 06:19:15;;;;;;;;;;;;;;;24.74;37.25;97413.38;598962;237;67280;-64
2023/03/29 06:21:43;;;;;;;;;;;;;;;24.77;34.71;97412.84;598991;237;64972;-64
2023/03/29 06:24:12;;;;;;;;;;;;;;;24.79;35.81;97416.02;599101;236;45915;-64
2023/03/29 06:26:41;;;;;;;;;;;;;;;24.81;35.68;97423.80;598982;236;46853;-64
2023/03/29 06:29:09;;;;;;;;;;;;;;;24.83;35.29;97415.44;599006;237;65068;-63
2023/03/29 06:31:39;;;;;;;;;;;;;;;24.84;35.32;97417.86;599061;236;46165;-63
2023/03/29 06:34:08;;;;;;;;;;;;;;;24.85;35.63;97424.83;599006;237;66228;-63
2023/03/29 06:36:44;;;;;;;;;;;;;;;24.86;35.77;97423.75;592303;236;45237;-64
2023/03/29 06:39:12;;;;;;;;;;;;;;;24.88;35.71;97440.41;599076;237;69474;-63
2023/03/29 06:41:42;;;;;;;;;;;;;;;24.90;35.84;97435.52;597912;237;48494;-63
2023/03/29 06:44:11;;;;;;;;;;;;;;;24.90;36.01;97427.45;599077;237;46756;-64
2023/03/29 06:46:41;;;;;;;;;;;;;;;24.92;35.96;97435.25;596856;237;49489;-63
2023/03/29 06:49:10;;;;;;;;;;;;;;;24.92;39.17;97436.05;599010;237;66385;-63
2023/03/29 06:51:40;;;;;;;;;;;;;;;24.90;36.45;97432.83;597770;237;45038;-63
2023/03/29 06:54:08;;;;;;;;;;;;;;;24.91;37.02;97445.20;599027;237;68732;-63
2023/03/29 06:56:38;;;;;;;;;;;;;;;24.92;36.59;97430.67;598805;237;69377;-64
2023/03/29 06:59:08;;;;;;;;;;;;;;;24.94;36.45;97433.08;598837;236;42772;-62
2023/03/29 07:01:41;;;;;;;;;;;;;;;24.95;36.20;97434.67;598735;236;47060;-65
2023/03/29 07:04:14;;;;;;;;;;;;;;;24.97;36.49;97441.37;594687;237;49883;-64
2023/03/29 07:06:47;;;;;;;;;;;;;;;24.98;38.99;97423.34;598272;237;42610;-64
2023/03/29 07:09:15;;;;;;;;;;;;;;;24.98;39.98;97437.58;598992;237;69558;-63
2023/03/29 07:11:49;;;;;;;;;;;;;;;24.97;41.74;97441.37;598085;237;51156;-63
2023/03/29 07:14:18;;;;;;;;;;;;;;;24.96;41.63;97430.89;598919;236;41477;-63
2023/03/29 07:16:47;;;;;;;;;;;;;;;24.95;39.40;97430.09;598917;237;67368;-63
2023/03/29 07:19:21;;;;;;;;;;;;;;;24.96;40.70;97437.09;598883;236;50394;-64
2023/03/29 07:21:53;;;;;;;;;;;;;;;24.96;41.39;97442.47;599011;237;46283;-64
2023/03/29 07:24:22;;;;;;;;;;;;;;;24.97;40.92;97427.92;599078;236;46543;-63
2023/03/29 07:26:51;;;;;;;;;;;;;;;24.97;40.21;97441.37;598919;237;69266;-63
2023/03/29 07:29:18;;;;;;;;;;;;;;;24.99;41.55;97433.00;598977;237;65298;-66
2023/03/29 07:31:46;;;;;;;;;;;;;;;24.99;38.35;97444.58;598864;237;68806;-64
2023/03/29 07:34:31;;;;;;;;;;;;;;;24.98;35.90;97434.89;598281;236;49814;-64
2023/03/29 07:36:59;;;;;;;;;;;;;;;24.99;37.86;97422.24;590893;236;62969;-63
2023/03/29 07:39:26;;;;;;;;;;;;;;;24.99;35.11;97423.07;587849;240;68970;-63
2023/03/29 07:42:12;;;;;;;;;;;;;;;25.01;35.09;97430.83;590208;235;43481;-64
2023/03/29 07:44:40;;;;;;;;;;;;;;;25.03;41.16;97444.80;587977;236;64903;-63
2023/03/29 07:47:08;;;;;;;;;;;;;;;25.02;35.21;97430.55;587933;240;66385;-63
2023/03/29 07:49:36;;;;;;;;;;;;;;;25.03;36.09;97426.77;595782;235;67049;-64
2023/03/29 07:52:04;;;;;;;;;;;;;;;25.05;38.88;97428.39;598135;237;65792;-64
2023/03/29 07:54:33;;;;;;;;;;;;;;;25.05;36.26;97425.70;597698;237;67015;-64
2023/03/29 07:57:18;;;;;;;;;;;;;;;25.08;39.54;97443.95;596436;236;39705;-63
2023/03/29 07:59:48;;;;;;;;;;;;;;;25.07;36.90;97439.63;584568;242;45132;-63
2023/03/29 08:02:18;;;;;;;;;;;;;;;25.07;35.27;97440.43;585098;242;46996;-64
2023/03/29 08:04:47;;;;;;;;;;;;;;;25.08;35.00;97441.25;584364;242;69061;-63
2023/03/29 08:07:19;;;;;;;;;;;;;;;25.10;38.58;97449.81;585287;242;46331;-63
2023/03/29 08:10:05;;;;;;;;;;;;;;;25.11;35.42;97440.68;585361;242;42212;-63
2023/03/29 08:12:52;;;;;;;;;;;;;;;25.14;35.50;97437.41;585342;242;40449;-64
2023/03/29 08:15:21;;;;;;;;;;;;;;;25.09;35.22;97424.81;585095;242;45310;-63
2023/03/29 08:17:49;;;;;;;;;;;;;;;25.16;34.57;97425.31;585170;242;66062;-63
2023/03/29 08:20:17;;;;;;;;;;;;;;;25.18;35.95;97409.69;585194;241;68293;-63
2023/03/29 08:22:48;;;;;;;;;;;;;;;25.18;34.76;97412.38;585091;242;63669;-63
2023/03/29 08:25:26;;;;;;;;;;;;;;;25.21;35.00;97425.25;589595;236;49968;-63
2023/03/29 08:27:53;;;;;;;;;;;;;;;25.24;34.41;97418.49;593573;239;68711;-64
2023/03/29 08:30:23;;;;;;;;;;;;;;;25.28;39.90;97426.78;593348;239;47731;-62
2023/03/29 08:32:51;;;;;;;;;;;;;;;25.31;34.56;97424.30;593593;239;69423;-62
2023/03/29 08:35:20;;;;;;;;;;;;;;;25.34;34.70;97434.48;592579;239;69101;-62
2023/03/29 08:37:58;;;;;;;;;;;;;;;25.38;34.12;97443.59;592212;239;44942;-64
2023/03/29 08:40:28;;;;;;;;;;;;;;;25.42;34.37;97438.42;593479;239;70596;-64
2023/03/29 08:43:05;;;;;;;;;;;;;;;25.45;38.28;97416.31;593634;239;47606;-63
2023/03/29 08:45:36;;;;;;;;;;;;;;;25.47;35.83;97420.31;593540;238;45976;-63
2023/03/29 08:48:15;;;;;;;;;;;;;;;25.51;38.41;97406.27;587590;241;66330;-62
2023/03/29 08:50:48;;;;;;;;;;;;;;;25.54;34.49;97416.48;587119;241;67442;-64
2023/03/29 08:53:20;;;;;;;;;;;;;;;25.54;37.45;97438.02;579997;244;66020;-64
2023/03/29 08:56:00;;;;;;;;;;;;;;;25.53;36.25;97428.32;579193;244;49896;-63
2023/03/29 08:58:47;;;;;;;;;;;;;;;25.52;34.22;97426.73;580253;243;40345;-63
2023/03/29 09:01:15;;;;;;;;;;;;;;;25.52;33.45;97418.66;584122;241;65282;-63
2023/03/29 09:03:52;;;;;;;;;;;;;;;25.53;34.65;97431.02;585301;241;50776;-63
2023/03/29 09:06:22;;;;;;;;;;;;;;;25.55;34.60;97418.08;584639;242;47305;-64
2023/03/29 09:08:51;;;;;;;;;;;;;;;25.54;35.98;97403.82;585468;242;65032;-64
2023/03/29 09:11:24;;;;;;;;;;;;;;;25.56;34.41;97400.82;585394;242;67388;-63
2023/03/29 09:14:10;;;;;;;;;;;;;;;25.59;32.89;97411.00;585517;242;67035;-63
2023/03/29 09:16:56;;;;;;;;;;;;;;;25.58;34.19;97404.83;585552;242;65979;-63
2023/03/29 09:19:25;;;;;;;;;;;;;;;25.60;37.15;97413.42;585496;242;66721;-62
2023/03/29 09:21:57;;;;;;;;;;;;;;;25.60;35.46;97436.84;585517;242;68672;-61
2023/03/29 09:24:26;;;;;;;;;;;;;;;25.59;35.12;97425.28;585916;242;65787;-62
2023/03/29 09:26:57;;;;;;;;;;;;;;;25.61;34.20;97424.98;585689;242;45563;-62
2023/03/29 09:29:54;;;;;;;;;;;;;;;25.62;35.64;97423.91;585864;242;49529;-62
2023/03/29 09:32:25;;;;;;;;;;;;;;;25.62;35.54;97424.70;585926;242;44688;-62
2023/03/29 09:34:56;;;;;;;;;;;;;;;25.64;34.71;97406.34;585556;242;49466;-62
2023/03/29 09:37:30;;;;;;;;;;;;;;;25.64;34.74;97413.62;585807;242;66719;-62
2023/03/29 09:40:02;;;;;;;;;;;;;;;25.63;35.46;97401.27;585662;242;62964;-64
2023/03/29 09:42:29;;;;;;;;;;;;;;;25.65;36.80;97409.86;584226;242;50286;-63
2023/03/29 09:45:00;;;;;;;;;;;;;;;25.67;36.02;97437.27;585944;242;68687;-64
2023/03/29 09:47:31;;;;;;;;;;;;;;;25.67;36.75;97421.11;585869;241;42245;-64
2023/03/29 09:50:00;;;;;;;;;;;;;;;25.67;40.00;97424.63;585868;242;66188;-64
2023/03/29 09:52:28;;;;;;;;;;;;;;;25.68;34.58;97436.98;585142;240;69567;-63
2023/03/29 09:55:02;;;;;;;;;;;;;;;25.70;34.76;97412.48;584295;241;42515;-63
2023/03/29 09:57:37;;;;;;;;;;;;;;;25.70;34.75;97417.86;584152;240;49695;-63
2023/03/29 10:00:06;;;;;;;;;;;;;;;25.69;34.33;97410.86;584431;241;69109;-64
2023/03/29 10:02:35;;;;;;;;;;;;;;;25.72;34.65;97410.27;584043;242;42512;-64
2023/03/29 10:05:08;;;;;;;;;;;;;;;25.73;35.44;97397.61;586301;241;69576;-64
2023/03/29 10:07:43;;;;;;;;;;;;;;;25.73;34.49;97430.73;586309;241;66578;-64
2023/03/29 10:10:09;;;;;;;;;;;;;;;25.74;33.81;97401.92;586300;241;62861;-64
2023/03/29 10:12:37;;;;;;;;;;;;;;;25.77;34.28;97387.87;586248;242;66617;-64
2023/03/29 10:15:05;;;;;;;;;;;;;;;25.77;33.89;97398.64;578348;242;66632;-64
2023/03/29 10:17:34;;;;;;;;;;;;;;;25.79;34.18;97418.80;575719;244;63097;-64
2023/03/29 10:20:02;;;;;;;;;;;;;;;25.80;34.34;97403.44;575534;244;68877;-64
2023/03/29 10:22:36;;;;;;;;;;;;;;;25.82;35.77;97399.36;575575;243;68462;-64
2023/03/29 10:25:04;;;;;;;;;;;;;;;25.84;34.90;97404.49;575662;243;66029;-64
2023/03/29 10:27:35;;;;;;;;;;;;;;;25.85;34.26;97395.31;575610;244;68703;-63
2023/03/29 10:30:04;;;;;;;;;;;;;;;25.87;34.11;97393.13;575582;244;69134;-64
2023/03/29 10:32:37;;;;;;;;;;;;;;;25.88;33.83;97392.83;575409;244;65241;-63
2023/03/29 10:35:23;;;;;;;;;;;;;;;25.89;34.50;97397.13;575526;244;68970;-64
2023/03/29 10:37:51;;;;;;;;;;;;;;;25.90;34.31;97392.55;575781;244;68885;-64
2023/03/29 10:40:21;;;;;;;;;;;;;;;25.89;35.27;97405.21;575433;244;63005;-64
2023/03/29 10:42:49;;;;;;;;;;;;;;;25.90;33.76;97412.19;575749;244;68885;-62
2023/03/29 10:45:22;;;;;;;;;;;;;;;25.90;33.95;97414.88;575911;244;68546;-62
2023/03/29 10:47:49;;;;;;;;;;;;;;;25.90;35.42;97412.19;575443;244;65062;-63
2023/03/29 10:50:17;;;;;;;;;;;;;;;25.90;38.91;97400.63;576070;244;68112;-61
2023/03/29 10:52:44;;;;;;;;;;;;;;;25.87;34.63;97412.77;587136;240;68518;-62
2023/03/29 10:55:13;;;;;;;;;;;;;;;25.87;33.15;97358.92;588309;241;65090;-62
2023/03/29 10:57:42;;;;;;;;;;;;;;;25.88;35.84;97398.20;588347;241;66603;-62
2023/03/29 11:00:11;;;;;;;;;;;;;;;25.91;33.36;97388.74;588213;241;66130;-63
2023/03/29 11:02:40;;;;;;;;;;;;;;;25.93;33.71;97393.84;588196;241;65105;-63
2023/03/29 11:05:26;;;;;;;;;;;;;;;25.95;33.57;97397.05;588347;241;66290;-63
2023/03/29 11:07:58;;;;;;;;;;;;;;;25.95;33.45;97376.30;589626;236;66236;-62
2023/03/29 11:10:28;;;;;;;;;;;;;;;25.93;33.81;97377.69;594831;238;65034;-63
2023/03/29 11:13:00;;;;;;;;;;;;;;;25.90;34.62;97396.03;590178;237;68757;-63
2023/03/29 11:15:29;;;;;;;;;;;;;;;25.89;41.00;97374.77;597220;236;68585;-63
2023/03/29 11:18:01;;;;;;;;;;;;;;;25.88;35.96;97383.95;595145;237;65115;-65
2023/03/29 11:20:30;;;;;;;;;;;;;;;25.83;34.92;97384.00;594674;238;66657;-64
2023/03/29 11:23:16;;;;;;;;;;;;;;;25.81;36.42;97365.46;594323;238;69471;-63
2023/03/29 11:25:52;;;;;;;;;;;;;;;25.79;38.05;97377.62;594864;238;65130;-63
2023/03/29 11:28:21;;;;;;;;;;;;;;;25.76;38.00;97362.84;594018;238;68834;-62
2023/03/29 11:30:52;;;;;;;;;;;;;;;25.76;40.14;97367.44;594629;238;68452;-63
2023/03/29 11:33:38;;;;;;;;;;;;;;;25.75;38.43;97365.82;594711;238;65289;-63
2023/03/29 11:36:08;;;;;;;;;;;;;;;25.74;38.92;97354.26;594791;238;66608;-63
2023/03/29 11:38:37;;;;;;;;;;;;;;;25.72;40.37;97359.13;594725;238;68485;-64
2023/03/29 11:41:18;;;;;;;;;;;;;;;25.72;40.59;97359.13;594835;238;65079;-63
2023/03/29 11:43:50;;;;;;;;;;;;;;;25.71;39.78;97365.62;594871;238;68903;-63
2023/03/29 11:46:22;;;;;;;;;;;;;;;25.71;40.45;97371.00;594855;238;69011;-62
2023/03/29 11:48:51;;;;;;;;;;;;;;;25.70;40.64;97366.72;594667;238;62788;-63
2023/03/29 11:51:23;;;;;;;;;;;;;;;25.70;38.91;97358.64;594625;238;68917;-63
2023/03/29 11:53:58;;;;;;;;;;;;;;;25.72;40.68;97355.64;594833;238;47153;-63
2023/03/29 11:56:28;;;;;;;;;;;;;;;25.69;40.27;97340.87;595891;238;65159;-64
2023/03/29 11:58:57;;;;;;;;;;;;;;;25.68;39.28;97372.38;594827;238;66664;-64
2023/03/29 12:01:27;;;;;;;;;;;;;;;25.67;38.92;97357.34;595996;238;69052;-63
2023/03/29 12:03:58;;;;;;;;;;;;;;;25.69;38.26;97340.87;595644;237;45025;-64
2023/03/29 12:06:27;;;;;;;;;;;;;;;25.71;37.33;97338.70;595987;238;66298;-63
2023/03/29 12:08:57;;;;;;;;;;;;;;;25.73;41.11;97351.84;595648;237;66665;-62
2023/03/29 12:11:44;;;;;;;;;;;;;;;25.72;38.15;97339.49;595920;238;65067;-62
2023/03/29 12:14:16;;;;;;;;;;;;;;;25.71;40.38;97338.70;595990;238;66585;-62
2023/03/29 12:16:47;;;;;;;;;;;;;;;25.73;38.21;97330.31;595831;238;48143;-62
2023/03/29 12:19:28;;;;;;;;;;;;;;;25.73;40.46;97335.70;596014;238;66015;-62
2023/03/29 12:21:56;;;;;;;;;;;;;;;25.73;35.47;97335.70;595889;238;66761;-62
2023/03/29 12:24:25;;;;;;;;;;;;;;;25.75;34.14;97325.44;595970;238;68660;-62
2023/03/29 12:26:57;;;;;;;;;;;;;;;25.76;38.52;97341.31;596015;238;65427;-62
2023/03/29 12:29:41;;;;;;;;;;;;;;;25.77;36.63;97337.52;595776;238;68888;-65
2023/03/29 12:32:17;;;;;;;;;;;;;;;25.77;32.68;97321.36;595963;238;68708;-63
2023/03/29 12:34:57;;;;;;;;;;;;;;;25.81;38.80;97335.84;595617;238;42630;-63
2023/03/29 12:37:35;;;;;;;;;;;;;;;25.80;37.50;97323.47;594976;238;48495;-62
2023/03/29 12:40:22;;;;;;;;;;;;;;;25.83;37.83;97335.54;596093;238;40397;-62
2023/03/29 12:42:53;;;;;;;;;;;;;;;25.85;39.20;97334.18;594780;238;46154;-62
2023/03/29 12:45:40;;;;;;;;;;;;;;;25.89;37.23;97334.37;596048;238;40400;-62
2023/03/29 12:48:09;;;;;;;;;;;;;;;25.97;32.26;97331.02;596017;238;66699;-61
2023/03/29 12:50:38;;;;;;;;;;;;;;;25.99;35.56;97328.03;595585;238;62914;-61
2023/03/29 12:53:06;;;;;;;;;;;;;;;25.99;36.19;97322.65;590005;239;68040;-62
2023/03/29 12:55:45;;;;;;;;;;;;;;;26.00;37.78;97329.62;590061;240;68450;-61
2023/03/29 12:58:26;;;;;;;;;;;;;;;26.01;38.85;97332.03;590080;239;65889;-62
2023/03/29 13:01:07;;;;;;;;;;;;;;;26.03;37.53;97324.46;587614;236;66260;-63
2023/03/29 13:03:36;;;;;;;;;;;;;;;26.08;36.51;97343.23;582951;243;69041;-61
2023/03/29 13:06:06;;;;;;;;;;;;;;;26.11;36.90;97341.84;582882;243;65207;-61
2023/03/29 13:08:38;;;;;;;;;;;;;;;26.15;37.18;97342.83;587091;236;68884;-61